Time;durP1;ratioP1;P1;durP2;ratioP2;P2;SDS_P1;SDS_P2;PMS_P1;PMS_P2;Temp;Humidity;BMP_temperature;BMP_pressure;BME280_temperature;BME280_humidity;BME280_pressure;Samples;Min_cycle;Max_cycle;Signal;HPM_P1;HPM_P2
2024/01/05 00:00:09;;;;;;;4.23;3.83;;;;;;;;;;4881333;29;20675;-87
2024/01/05 00:02:45;;;;;;;5.17;3.97;;;;;;;;;;4881732;29;20259;-87
2024/01/05 00:05:38;;;;;;;4.37;3.17;;;;;;;;;;4887259;29;20682;-87
2024/01/05 00:08:26;;;;;;;4.87;3.90;;;;;;;;;;4900702;29;20233;-87
2024/01/05 00:13:49;;;;;;;6.37;4.30;;;;;;;;;;4895819;29;20251;-89
2024/01/05 00:16:23;;;;;;;4.57;3.50;;;;;;;;;;4901184;29;20637;-87
2024/01/05 00:18:57;;;;;;;6.47;4.67;;;;;;;;;;4899066;29;20288;-89
2024/01/05 00:22:02;;;;;;;;;;;;;;;;;;;;;
2024/01/05 00:24:56;;;;;;;5.47;3.90;;;;;;;;;;4899633;29;20228;-87
2024/01/05 00:27:32;;;;;;;4.70;3.83;;;;;;;;;;4900327;29;20677;-87
2024/01/05 00:30:00;;;;;;;6.27;4.40;;;;;;;;;;4898491;29;20689;-87
2024/01/05 00:32:31;;;;;;;5.57;4.00;;;;;;;;;;4898586;29;20301;-87
2024/01/05 00:34:59;;;;;;;8.20;3.97;;;;;;;;;;4897755;29;20247;-88
2024/01/05 00:37:30;;;;;;;6.23;3.93;;;;;;;;;;4899025;29;20228;-88
2024/01/05 00:40:07;;;;;;;7.20;4.63;;;;;;;;;;4884022;29;20228;-87
2024/01/05 00:42:34;;;;;;;7.83;5.20;;;;;;;;;;4899699;29;20268;-88
2024/01/05 00:45:02;;;;;;;6.23;4.73;;;;;;;;;;4898096;29;20232;-87
2024/01/05 00:47:29;;;;;;;3.33;2.97;;;;;;;;;;4899186;29;20236;-88
2024/01/05 00:49:56;;;;;;;6.57;4.63;;;;;;;;;;4901390;29;20288;-86
2024/01/05 00:52:24;;;;;;;7.73;4.33;;;;;;;;;;4899554;29;20327;-86
2024/01/05 00:54:51;;;;;;;3.00;2.60;;;;;;;;;;4899404;29;20244;-87
2024/01/05 00:57:19;;;;;;;2.60;2.50;;;;;;;;;;4899095;29;20645;-87
2024/01/05 00:59:48;;;;;;;6.53;5.13;;;;;;;;;;4900514;29;20263;-87
2024/01/05 01:02:17;;;;;;;5.40;4.23;;;;;;;;;;4899910;29;20304;-87
2024/01/05 01:04:44;;;;;;;4.40;3.80;;;;;;;;;;4897412;29;20320;-86
2024/01/05 01:07:11;;;;;;;5.03;2.77;;;;;;;;;;4888002;29;20232;-86
2024/01/05 01:09:39;;;;;;;10.00;2.60;;;;;;;;;;4896218;29;20310;-87
2024/01/05 01:12:10;;;;;;;2.53;1.53;;;;;;;;;;4886567;29;20297;-88
2024/01/05 01:14:41;;;;;;;1.70;1.60;;;;;;;;;;4895686;29;20318;-86
2024/01/05 01:17:08;;;;;;;1.50;1.07;;;;;;;;;;4896123;29;20247;-86
2024/01/05 01:19:35;;;;;;;0.70;0.70;;;;;;;;;;4889048;29;20240;-86
2024/01/05 01:22:03;;;;;;;0.93;0.90;;;;;;;;;;4886334;29;20228;-87
2024/01/05 01:24:30;;;;;;;2.23;2.03;;;;;;;;;;4897144;29;20244;-87
2024/01/05 01:27:00;;;;;;;3.63;3.13;;;;;;;;;;4896819;29;20236;-86
2024/01/05 01:29:30;;;;;;;4.43;3.23;;;;;;;;;;4897226;29;20338;-86
2024/01/05 01:31:59;;;;;;;4.50;3.80;;;;;;;;;;4898381;29;20212;-86
2024/01/05 01:34:27;;;;;;;5.27;3.27;;;;;;;;;;4901698;29;20694;-86
2024/01/05 01:36:54;;;;;;;2.77;2.57;;;;;;;;;;4900430;29;20204;-85
2024/01/05 01:39:21;;;;;;;4.57;3.10;;;;;;;;;;4914545;29;20306;-86
2024/01/05 01:41:49;;;;;;;5.00;3.03;;;;;;;;;;4891275;29;20264;-86
2024/01/05 01:44:16;;;;;;;4.40;3.13;;;;;;;;;;4888585;29;20213;-87
2024/01/05 01:46:44;;;;;;;3.47;3.17;;;;;;;;;;4884604;29;20213;-85
2024/01/05 01:49:13;;;;;;;8.10;3.83;;;;;;;;;;4887273;29;20614;-85
2024/01/05 01:51:42;;;;;;;3.53;2.30;;;;;;;;;;4884985;29;20202;-87
2024/01/05 01:54:10;;;;;;;6.60;4.50;;;;;;;;;;4881526;29;20582;-86
2024/01/05 01:56:39;;;;;;;14.73;5.07;;;;;;;;;;4881516;29;20289;-86
2024/01/05 01:59:07;;;;;;;10.83;3.50;;;;;;;;;;4880868;29;20679;-86
2024/01/05 02:01:35;;;;;;;3.73;3.10;;;;;;;;;;4880746;29;20663;-87
2024/01/05 02:04:03;;;;;;;5.77;2.57;;;;;;;;;;4897102;29;20216;-86
2024/01/05 02:06:34;;;;;;;3.47;3.17;;;;;;;;;;4898188;29;20208;-88
2024/01/05 02:09:02;;;;;;;3.60;2.50;;;;;;;;;;4898216;29;20307;-87
2024/01/05 02:11:30;;;;;;;4.90;3.27;;;;;;;;;;4899581;29;20621;-87
2024/01/05 02:14:05;;;;;;;4.73;2.97;;;;;;;;;;4899018;29;20201;-86
2024/01/05 02:16:36;;;;;;;3.03;2.80;;;;;;;;;;4898560;29;20207;-86
2024/01/05 02:19:03;;;;;;;3.40;2.83;;;;;;;;;;4899378;29;20201;-86
2024/01/05 02:21:36;;;;;;;5.50;3.37;;;;;;;;;;4899241;29;20288;-86
2024/01/05 02:24:06;;;;;;;6.87;3.27;;;;;;;;;;4898908;29;20248;-86
2024/01/05 02:26:33;;;;;;;4.77;3.60;;;;;;;;;;4899020;29;20239;-86
2024/01/05 02:29:03;;;;;;;5.10;3.60;;;;;;;;;;4898106;29;20304;-85
2024/01/05 02:31:30;;;;;;;3.50;3.20;;;;;;;;;;4897480;29;20215;-87
2024/01/05 02:33:57;;;;;;;5.33;3.50;;;;;;;;;;4897565;29;20628;-86
2024/01/05 02:36:25;;;;;;;3.97;3.43;;;;;;;;;;4897690;29;20232;-85
2024/01/05 02:38:54;;;;;;;3.87;3.07;;;;;;;;;;4897461;29;20260;-86
2024/01/05 02:41:26;;;;;;;9.20;4.00;;;;;;;;;;4898606;29;20586;-86
2024/01/05 02:43:53;;;;;;;7.50;3.73;;;;;;;;;;4900354;29;20224;-86
2024/01/05 02:46:21;;;;;;;13.17;4.97;;;;;;;;;;4898430;29;20208;-86
2024/01/05 02:48:48;;;;;;;24.20;7.57;;;;;;;;;;4897108;29;20209;-87
2024/01/05 02:51:17;;;;;;;18.73;6.27;;;;;;;;;;4898711;29;20223;-87
2024/01/05 02:53:45;;;;;;;5.47;3.17;;;;;;;;;;4899356;29;20287;-86
2024/01/05 02:56:20;;;;;;;6.07;4.43;;;;;;;;;;4898467;29;20228;-85
2024/01/05 02:58:50;;;;;;;3.10;2.20;;;;;;;;;;4899058;29;20211;-86
2024/01/05 03:01:17;;;;;;;4.80;3.00;;;;;;;;;;4898028;29;20215;-86
2024/01/05 03:03:45;;;;;;;2.73;2.53;;;;;;;;;;4899936;29;20220;-85
2024/01/05 03:06:13;;;;;;;3.90;2.30;;;;;;;;;;4909490;29;20211;-85
2024/01/05 03:08:43;;;;;;;4.03;3.73;;;;;;;;;;4909371;29;20228;-85
2024/01/05 03:11:10;;;;;;;10.90;5.30;;;;;;;;;;4909929;29;20215;-86
2024/01/05 03:13:38;;;;;;;15.97;6.87;;;;;;;;;;4918484;29;20304;-85
2024/01/05 03:16:09;;;;;;;12.27;4.10;;;;;;;;;;4911162;29;20272;-85
2024/01/05 03:18:36;;;;;;;9.77;3.47;;;;;;;;;;4902273;29;20204;-86
2024/01/05 03:21:03;;;;;;;5.10;2.80;;;;;;;;;;4910361;29;20241;-87
2024/01/05 03:23:31;;;;;;;9.47;3.67;;;;;;;;;;4909458;29;20200;-87
2024/01/05 03:25:58;;;;;;;11.57;4.23;;;;;;;;;;4910420;29;20219;-88
2024/01/05 03:28:26;;;;;;;7.80;2.47;;;;;;;;;;4909911;29;20204;-86
2024/01/05 03:30:53;;;;;;;5.93;4.47;;;;;;;;;;4904254;29;20205;-86
2024/01/05 03:33:22;;;;;;;6.83;2.80;;;;;;;;;;4898283;29;20220;-88
2024/01/05 03:35:49;;;;;;;3.57;3.10;;;;;;;;;;4916383;29;20307;-87
2024/01/05 03:38:16;;;;;;;7.03;2.63;;;;;;;;;;4917691;29;20240;-87
2024/01/05 03:40:43;;;;;;;10.07;3.97;;;;;;;;;;4916379;29;20201;-86
2024/01/05 03:43:11;;;;;;;4.83;3.47;;;;;;;;;;4911000;29;20215;-86
2024/01/05 03:45:39;;;;;;;10.77;4.60;;;;;;;;;;4903920;29;20309;-85
2024/01/05 03:48:06;;;;;;;6.83;3.53;;;;;;;;;;4908838;29;20200;-86
2024/01/05 03:50:37;;;;;;;7.87;4.67;;;;;;;;;;4911863;29;20260;-86
2024/01/05 03:53:15;;;;;;;4.37;3.50;;;;;;;;;;4906511;29;20217;-85
2024/01/05 03:55:42;;;;;;;6.23;4.07;;;;;;;;;;4912558;29;20254;-86
2024/01/05 03:58:14;;;;;;;6.63;3.37;;;;;;;;;;4913337;29;20603;-86
2024/01/05 04:00:45;;;;;;;6.43;3.17;;;;;;;;;;4912406;29;20208;-87
2024/01/05 04:03:21;;;;;;;4.07;3.67;;;;;;;;;;4912839;29;20212;-86
2024/01/05 04:05:50;;;;;;;7.43;4.30;;;;;;;;;;4912720;29;20228;-86
2024/01/05 04:08:17;;;;;;;5.73;3.23;;;;;;;;;;4912894;29;20224;-85
2024/01/05 04:10:45;;;;;;;4.77;4.23;;;;;;;;;;4913117;29;20227;-86
2024/01/05 04:13:12;;;;;;;6.07;3.13;;;;;;;;;;4908989;29;20200;-85
2024/01/05 04:15:41;;;;;;;8.37;5.40;;;;;;;;;;4906367;29;20713;-86
2024/01/05 04:18:09;;;;;;;7.97;4.63;;;;;;;;;;4907295;29;20220;-86
2024/01/05 04:20:36;;;;;;;6.73;3.17;;;;;;;;;;4907971;29;20216;-87
2024/01/05 04:23:04;;;;;;;4.47;3.97;;;;;;;;;;4906621;29;20204;-87
2024/01/05 04:25:32;;;;;;;5.30;3.90;;;;;;;;;;4907776;29;20733;-85
2024/01/05 04:27:59;;;;;;;5.67;4.27;;;;;;;;;;4907621;29;20212;-85
2024/01/05 04:30:26;;;;;;;13.90;4.37;;;;;;;;;;4906406;29;20312;-87
2024/01/05 04:32:54;;;;;;;13.90;4.33;;;;;;;;;;4909782;29;20268;-86
2024/01/05 04:35:22;;;;;;;4.90;4.10;;;;;;;;;;4905415;29;20263;-86
2024/01/05 04:37:49;;;;;;;7.80;3.93;;;;;;;;;;4900660;29;20745;-87
2024/01/05 04:40:19;;;;;;;7.30;3.83;;;;;;;;;;4899763;29;20236;-87
2024/01/05 04:42:46;;;;;;;3.67;3.33;;;;;;;;;;4901205;29;20268;-87
2024/01/05 04:45:16;;;;;;;5.90;3.93;;;;;;;;;;4901667;29;20243;-85
2024/01/05 04:47:47;;;;;;;5.60;4.50;;;;;;;;;;4900278;29;20201;-88
2024/01/05 04:50:14;;;;;;;10.43;4.70;;;;;;;;;;4899965;29;20221;-87
2024/01/05 04:52:42;;;;;;;7.67;6.60;;;;;;;;;;4903701;29;20196;-87
2024/01/05 04:55:14;;;;;;;8.77;4.53;;;;;;;;;;4900440;29;20286;-88
2024/01/05 04:57:44;;;;;;;6.57;4.17;;;;;;;;;;4899786;29;20212;-87
2024/01/05 05:00:11;;;;;;;4.53;2.93;;;;;;;;;;4898997;29;20203;-87
2024/01/05 05:02:39;;;;;;;5.17;3.73;;;;;;;;;;4906082;29;20240;-87
2024/01/05 05:05:06;;;;;;;6.20;3.77;;;;;;;;;;4899356;29;20205;-88
2024/01/05 05:07:33;;;;;;;8.23;4.93;;;;;;;;;;4901241;29;20696;-88
2024/01/05 05:10:01;;;;;;;101.13;35.77;;;;;;;;;;4904468;29;20279;-87
2024/01/05 05:12:29;;;;;;;9.23;5.97;;;;;;;;;;4902315;29;20208;-87
2024/01/05 05:14:58;;;;;;;6.60;4.63;;;;;;;;;;4902307;29;20256;-87
2024/01/05 05:17:27;;;;;;;7.33;4.50;;;;;;;;;;4902413;29;20216;-87
2024/01/05 05:19:59;;;;;;;4.67;4.27;;;;;;;;;;4901270;29;20224;-87
2024/01/05 05:22:26;;;;;;;6.90;3.97;;;;;;;;;;4901455;29;20259;-89
2024/01/05 05:24:54;;;;;;;3.10;2.80;;;;;;;;;;4899408;29;20722;-89
2024/01/05 05:27:23;;;;;;;5.77;2.77;;;;;;;;;;4899051;29;20189;-88
2024/01/05 05:29:50;;;;;;;4.57;3.47;;;;;;;;;;4898021;29;20379;-87
2024/01/05 05:32:20;;;;;;;3.37;2.37;;;;;;;;;;4899390;29;20215;-87
2024/01/05 05:34:48;;;;;;;2.63;2.43;;;;;;;;;;4899221;29;20201;-88
2024/01/05 05:37:15;;;;;;;3.27;2.97;;;;;;;;;;4898615;29;20663;-88
2024/01/05 05:39:46;;;;;;;4.83;3.53;;;;;;;;;;4899097;29;20208;-88
2024/01/05 05:42:14;;;;;;;9.80;3.90;;;;;;;;;;4899155;29;20211;-88
2024/01/05 05:44:42;;;;;;;9.37;4.30;;;;;;;;;;4899366;29;20343;-89
2024/01/05 05:47:11;;;;;;;4.80;2.50;;;;;;;;;;4900011;29;20233;-88
2024/01/05 05:49:40;;;;;;;2.70;2.53;;;;;;;;;;4903126;29;20208;-88
2024/01/05 05:52:07;;;;;;;9.23;3.47;;;;;;;;;;4902508;29;20775;-87
2024/01/05 05:54:35;;;;;;;2.70;2.60;;;;;;;;;;4904720;29;20268;-87
2024/01/05 05:57:03;;;;;;;2.47;2.27;;;;;;;;;;4901190;29;20239;-88
2024/01/05 05:59:30;;;;;;;11.97;3.20;;;;;;;;;;4898590;29;20207;-88
2024/01/05 06:01:58;;;;;;;4.20;3.60;;;;;;;;;;4900790;29;20197;-88
2024/01/05 06:04:25;;;;;;;5.30;3.23;;;;;;;;;;4901982;29;20295;-87
2024/01/05 06:06:54;;;;;;;5.43;3.37;;;;;;;;;;4898256;29;20208;-88
2024/01/05 06:09:21;;;;;;;6.13;4.27;;;;;;;;;;4899682;29;20225;-87
2024/01/05 06:11:48;;;;;;;3.90;3.30;;;;;;;;;;4898943;29;20718;-88
2024/01/05 06:14:15;;;;;;;3.00;2.77;;;;;;;;;;4898705;29;20196;-87
2024/01/05 06:16:43;;;;;;;3.40;3.00;;;;;;;;;;4899080;29;20228;-87
2024/01/05 06:19:11;;;;;;;8.47;4.30;;;;;;;;;;4900394;29;20219;-87
2024/01/05 06:21:39;;;;;;;8.07;3.93;;;;;;;;;;4897484;29;20196;-87
2024/01/05 06:24:08;;;;;;;9.80;4.17;;;;;;;;;;4899361;29;20231;-88
2024/01/05 06:26:36;;;;;;;5.33;4.30;;;;;;;;;;4905699;29;20637;-85
2024/01/05 06:29:06;;;;;;;8.43;5.67;;;;;;;;;;4906975;29;20772;-88
2024/01/05 06:31:36;;;;;;;8.73;5.80;;;;;;;;;;4907693;29;20251;-86
2024/01/05 06:34:04;;;;;;;12.80;6.63;;;;;;;;;;4901274;29;20204;-88
2024/01/05 06:36:31;;;;;;;7.07;5.13;;;;;;;;;;4900450;29;20696;-88
2024/01/05 06:38:59;;;;;;;8.47;4.63;;;;;;;;;;4900238;29;20374;-87
2024/01/05 06:41:28;;;;;;;8.33;5.03;;;;;;;;;;4898667;29;20207;-86
2024/01/05 06:43:58;;;;;;;9.13;4.97;;;;;;;;;;4900795;29;20252;-87
2024/01/05 06:46:29;;;;;;;4.67;3.77;;;;;;;;;;4899766;29;20539;-87
2024/01/05 06:48:57;;;;;;;4.70;3.70;;;;;;;;;;4899502;29;20196;-88
2024/01/05 06:51:29;;;;;;;5.00;3.37;;;;;;;;;;4895914;29;20207;-88
2024/01/05 06:53:57;;;;;;;5.90;2.97;;;;;;;;;;4900711;29;20292;-88
2024/01/05 06:56:27;;;;;;;6.93;3.87;;;;;;;;;;4905995;29;20247;-86
2024/01/05 06:58:57;;;;;;;4.73;2.43;;;;;;;;;;4910604;29;20201;-87
2024/01/05 07:01:30;;;;;;;2.90;2.70;;;;;;;;;;4906049;29;20205;-88
2024/01/05 07:03:58;;;;;;;2.93;2.03;;;;;;;;;;4910907;29;20193;-87
2024/01/05 07:06:25;;;;;;;3.97;1.40;;;;;;;;;;4908749;29;20224;-89
2024/01/05 07:08:53;;;;;;;1.90;1.80;;;;;;;;;;4907483;29;20245;-87
2024/01/05 07:14:08;;;;;;;1.63;1.47;;;;;;;;;;4915703;29;20253;-86
2024/01/05 07:16:39;;;;;;;2.77;1.30;;;;;;;;;;4915463;29;20232;-86
2024/01/05 07:19:07;;;;;;;10.20;4.50;;;;;;;;;;4918587;29;20289;-88
2024/01/05 07:21:43;;;;;;;6.60;3.43;;;;;;;;;;4918162;29;20212;-86
2024/01/05 07:24:11;;;;;;;4.47;3.23;;;;;;;;;;4908654;29;20199;-86
2024/01/05 07:26:38;;;;;;;3.47;2.80;;;;;;;;;;4907166;29;20208;-87
2024/01/05 07:29:07;;;;;;;2.10;2.00;;;;;;;;;;4906586;29;20288;-87
2024/01/05 07:31:38;;;;;;;3.37;1.63;;;;;;;;;;4907750;29;20217;-86
2024/01/05 07:34:05;;;;;;;2.77;2.27;;;;;;;;;;4906516;29;20201;-87
2024/01/05 07:36:33;;;;;;;3.23;1.90;;;;;;;;;;4899484;29;20289;-86
2024/01/05 07:39:07;;;;;;;2.53;2.07;;;;;;;;;;4902731;29;20208;-86
2024/01/05 07:41:35;;;;;;;2.00;1.90;;;;;;;;;;4903966;29;20210;-86
2024/01/05 07:44:02;;;;;;;1.90;1.77;;;;;;;;;;4899825;29;20271;-87
2024/01/05 07:46:31;;;;;;;2.60;2.27;;;;;;;;;;4900615;29;20289;-87
2024/01/05 07:48:59;;;;;;;4.37;2.40;;;;;;;;;;4897271;29;20217;-86
2024/01/05 07:51:27;;;;;;;2.13;1.60;;;;;;;;;;4898552;29;20291;-87
2024/01/05 07:53:58;;;;;;;3.47;1.87;;;;;;;;;;4900089;29;20205;-87
2024/01/05 07:56:26;;;;;;;3.90;2.27;;;;;;;;;;4899575;29;20774;-86
2024/01/05 07:58:55;;;;;;;1.43;1.40;;;;;;;;;;4899949;29;20210;-86
2024/01/05 08:01:22;;;;;;;5.20;2.10;;;;;;;;;;4899648;29;20299;-87
2024/01/05 08:03:54;;;;;;;1.97;1.77;;;;;;;;;;4899771;29;20601;-86
2024/01/05 08:06:21;;;;;;;2.43;2.27;;;;;;;;;;4889268;29;20706;-87
2024/01/05 08:08:51;;;;;;;3.83;2.10;;;;;;;;;;4899508;29;20239;-87
2024/01/05 08:11:19;;;;;;;1.70;1.60;;;;;;;;;;4913931;29;20331;-86
2024/01/05 08:13:47;;;;;;;1.67;1.60;;;;;;;;;;4918524;29;20196;-86
2024/01/05 08:16:16;;;;;;;2.27;2.07;;;;;;;;;;4921488;29;20207;-86
2024/01/05 08:18:44;;;;;;;1.60;1.53;;;;;;;;;;4921545;29;20245;-87
2024/01/05 08:21:13;;;;;;;3.80;1.90;;;;;;;;;;4921706;29;20883;-87
2024/01/05 08:23:43;;;;;;;5.77;1.93;;;;;;;;;;4908346;29;20653;-88
2024/01/05 08:26:11;;;;;;;1.70;1.67;;;;;;;;;;4899479;29;20199;-85
2024/01/05 08:28:39;;;;;;;2.13;1.98;;;;;;;;;;4899737;29;20228;-87
2024/01/05 08:31:07;;;;;;;3.07;2.47;;;;;;;;;;4900565;29;20267;-86
2024/01/05 08:33:36;;;;;;;7.63;2.47;;;;;;;;;;4904101;29;20211;-86
2024/01/05 08:36:03;;;;;;;3.27;2.37;;;;;;;;;;4907062;29;20200;-88
2024/01/05 08:38:32;;;;;;;5.83;2.03;;;;;;;;;;4901141;29;20241;-86
2024/01/05 08:41:00;;;;;;;2.90;2.70;;;;;;;;;;4903149;29;20219;-86
2024/01/05 08:43:27;;;;;;;6.57;2.20;;;;;;;;;;4902877;29;20209;-86
2024/01/05 08:45:55;;;;;;;3.57;2.23;;;;;;;;;;4899370;29;20233;-85
2024/01/05 08:48:34;;;;;;;3.13;2.00;;;;;;;;;;4897558;29;20230;-86
2024/01/05 08:51:21;;;;;;;1.80;1.70;;;;;;;;;;4897320;29;20280;-85
2024/01/05 08:54:01;;;;;;;4.37;1.60;;;;;;;;;;4906909;29;20709;-86
2024/01/05 08:56:28;;;;;;;2.53;2.10;;;;;;;;;;4903918;29;20231;-85
2024/01/05 08:58:55;;;;;;;5.13;2.07;;;;;;;;;;4903519;29;20254;-85
2024/01/05 09:01:22;;;;;;;2.80;2.07;;;;;;;;;;4899991;29;20243;-86
2024/01/05 09:03:52;;;;;;;1.80;1.70;;;;;;;;;;4898042;29;20215;-85
2024/01/05 09:06:19;;;;;;;3.33;1.97;;;;;;;;;;4899627;29;20681;-86
2024/01/05 09:08:47;;;;;;;2.00;1.70;;;;;;;;;;4900806;29;20228;-86
2024/01/05 09:11:15;;;;;;;4.43;2.13;;;;;;;;;;4898783;29;20682;-86
2024/01/05 09:13:43;;;;;;;1.93;1.80;;;;;;;;;;4898710;29;20285;-87
2024/01/05 09:16:13;;;;;;;5.37;2.13;;;;;;;;;;4899009;29;20212;-85
2024/01/05 09:18:51;;;;;;;5.07;2.30;;;;;;;;;;4896618;29;20684;-86
2024/01/05 09:21:18;;;;;;;5.90;2.20;;;;;;;;;;4900124;29;20228;-87
2024/01/05 09:23:49;;;;;;;3.67;2.07;;;;;;;;;;4899366;29;20209;-86
2024/01/05 09:26:18;;;;;;;2.67;2.03;;;;;;;;;;4897775;29;20205;-86
2024/01/05 09:29:00;;;;;;;5.70;1.97;;;;;;;;;;4898055;29;20239;-85
2024/01/05 09:31:31;;;;;;;2.67;2.33;;;;;;;;;;4895665;29;20303;-85
2024/01/05 09:33:58;;;;;;;3.53;2.20;;;;;;;;;;4897840;29;20216;-87
2024/01/05 09:36:26;;;;;;;3.53;1.90;;;;;;;;;;4897957;29;20203;-86
2024/01/05 09:38:54;;;;;;;8.30;2.17;;;;;;;;;;4899269;29;20201;-87
2024/01/05 09:41:23;;;;;;;2.37;2.20;;;;;;;;;;4900775;29;20217;-86
2024/01/05 09:47:13;;;;;;;8.60;2.83;;;;;;;;;;5109868;27;20564;-86
2024/01/05 09:49:44;;;;;;;3.37;3.00;;;;;;;;;;5109619;28;20695;-87
2024/01/05 09:52:13;;;;;;;3.00;2.27;;;;;;;;;;5109383;28;20684;-86
2024/01/05 09:54:41;;;;;;;5.67;2.53;;;;;;;;;;5109874;28;20200;-86
2024/01/05 09:57:11;;;;;;;3.93;2.50;;;;;;;;;;5117277;28;20217;-86
2024/01/05 09:59:40;;;;;;;9.33;2.90;;;;;;;;;;5112926;28;20185;-86
2024/01/05 10:02:10;;;;;;;6.43;3.13;;;;;;;;;;5103619;28;20218;-86
2024/01/05 10:04:40;;;;;;;2.77;2.30;;;;;;;;;;5109427;28;20331;-85
2024/01/05 10:12:47;;;;;;;2.13;1.93;;;;;;;;;;5017835;28;20329;-87
2024/01/05 10:15:14;;;;;;;6.70;2.50;;;;;;;;;;5017709;28;20220;-85
2024/01/05 10:17:45;;;;;;;5.47;2.20;;;;;;;;;;5034561;28;20263;-86
2024/01/05 10:20:15;;;;;;;3.23;2.63;;;;;;;;;;5025815;28;20231;-86
2024/01/05 10:22:43;;;;;;;4.00;2.33;;;;;;;;;;5027942;28;20230;-85
2024/01/05 10:25:17;;;;;;;3.00;2.80;;;;;;;;;;5027837;28;20660;-86
2024/01/05 10:27:44;;;;;;;3.53;3.13;;;;;;;;;;5028656;28;20228;-85
2024/01/05 10:30:12;;;;;;;3.77;3.23;;;;;;;;;;5027460;28;20226;-86
2024/01/05 10:32:40;;;;;;;3.30;2.13;;;;;;;;;;5026351;28;20301;-87
2024/01/05 10:35:09;;;;;;;2.03;1.93;;;;;;;;;;5030909;28;20227;-85
2024/01/05 10:37:38;;;;;;;3.73;2.03;;;;;;;;;;5042485;28;20234;-86
2024/01/05 10:40:06;;;;;;;5.80;2.83;;;;;;;;;;5047401;28;20225;-85
2024/01/05 10:42:35;;;;;;;2.47;2.27;;;;;;;;;;5047803;28;20222;-86
2024/01/05 10:45:03;;;;;;;10.40;2.63;;;;;;;;;;5048073;28;20674;-85
2024/01/05 10:47:36;;;;;;;4.53;2.30;;;;;;;;;;5032373;28;20292;-85
2024/01/05 10:50:04;;;;;;;8.27;2.00;;;;;;;;;;5043561;28;20271;-87
2024/01/05 10:52:32;;;;;;;6.80;2.63;;;;;;;;;;5038259;28;20223;-87
2024/01/05 10:55:03;;;;;;;3.73;3.13;;;;;;;;;;5047262;28;20221;-87
2024/01/05 10:57:32;;;;;;;4.53;3.40;;;;;;;;;;5038745;28;20208;-86
2024/01/05 10:59:59;;;;;;;3.20;2.90;;;;;;;;;;5023217;28;20304;-86
2024/01/05 11:02:34;;;;;;;6.03;3.40;;;;;;;;;;5015847;28;20222;-86
2024/01/05 11:05:13;;;;;;;7.20;3.33;;;;;;;;;;5017415;28;20222;-86
2024/01/05 11:07:42;;;;;;;2.10;1.93;;;;;;;;;;5015152;28;20303;-86
2024/01/05 11:10:19;;;;;;;3.90;2.83;;;;;;;;;;5036159;28;20246;-85
2024/01/05 11:12:58;;;;;;;5.00;2.33;;;;;;;;;;5037104;28;20261;-86
2024/01/05 11:15:32;;;;;;;5.07;3.40;;;;;;;;;;5034569;28;20228;-86
2024/01/05 11:18:23;;;;;;;5.77;3.57;;;;;;;;;;5034409;28;20295;-86
2024/01/05 11:20:56;;;;;;;4.10;3.30;;;;;;;;;;5035585;28;20231;-86
2024/01/05 11:23:25;;;;;;;6.67;2.83;;;;;;;;;;5033325;28;20228;-86
2024/01/05 11:25:55;;;;;;;9.27;3.70;;;;;;;;;;5042745;28;20247;-87
2024/01/05 11:28:35;;;;;;;5.80;3.97;;;;;;;;;;5051668;28;20235;-87
2024/01/05 11:31:03;;;;;;;5.50;3.47;;;;;;;;;;5051483;28;20231;-86
2024/01/05 11:33:43;;;;;;;8.87;3.00;;;;;;;;;;5050155;28;20276;-86
2024/01/05 11:36:12;;;;;;;3.13;2.30;;;;;;;;;;5054552;28;20248;-86
2024/01/05 11:38:44;;;;;;;3.80;3.37;;;;;;;;;;5044506;28;20235;-87
2024/01/05 11:41:21;;;;;;;5.70;3.73;;;;;;;;;;5038311;28;20783;-86
2024/01/05 11:43:49;;;;;;;8.03;4.57;;;;;;;;;;5033423;28;20610;-84
2024/01/05 11:46:22;;;;;;;5.07;4.53;;;;;;;;;;5031899;28;20237;-86
2024/01/05 11:48:51;;;;;;;4.60;4.07;;;;;;;;;;5033398;28;20240;-87
2024/01/05 11:51:21;;;;;;;6.33;4.70;;;;;;;;;;5034063;28;21058;-86
2024/01/05 11:53:51;;;;;;;10.47;4.50;;;;;;;;;;5032275;28;20767;-86
2024/01/05 11:56:26;;;;;;;5.70;4.20;;;;;;;;;;5034939;28;20228;-87
2024/01/05 11:59:10;;;;;;;8.60;3.63;;;;;;;;;;5032678;28;20231;-85
2024/01/05 12:01:51;;;;;;;3.83;2.87;;;;;;;;;;5032878;28;20258;-87
2024/01/05 12:04:19;;;;;;;4.47;3.57;;;;;;;;;;5033158;28;20246;-86
2024/01/05 12:06:52;;;;;;;10.30;3.13;;;;;;;;;;5035259;28;20234;-86
2024/01/05 12:09:19;;;;;;;3.37;2.83;;;;;;;;;;5032873;28;20252;-87
2024/01/05 12:11:51;;;;;;;5.87;3.10;;;;;;;;;;5035318;28;20237;-86
2024/01/05 12:14:30;;;;;;;2.93;2.60;;;;;;;;;;5014036;28;20233;-86
2024/01/05 12:17:13;;;;;;;5.47;2.87;;;;;;;;;;5031027;28;20234;-86
2024/01/05 12:19:42;;;;;;;3.87;3.10;;;;;;;;;;5032284;28;20246;-86
2024/01/05 12:22:18;;;;;;;3.07;2.80;;;;;;;;;;5033941;28;20227;-85
2024/01/05 12:24:47;;;;;;;3.53;3.23;;;;;;;;;;5033574;28;20293;-86
2024/01/05 12:27:18;;;;;;;7.17;3.00;;;;;;;;;;5033591;28;20627;-85
2024/01/05 12:29:56;;;;;;;5.23;2.97;;;;;;;;;;5031949;28;20280;-85
2024/01/05 12:32:29;;;;;;;15.53;3.70;;;;;;;;;;5034642;28;20342;-85
2024/01/05 12:34:56;;;;;;;7.13;3.57;;;;;;;;;;5033929;28;20230;-87
2024/01/05 12:37:25;;;;;;;14.77;3.53;;;;;;;;;;5032017;28;20226;-85
2024/01/05 12:39:51;;;;;;;8.93;2.97;;;;;;;;;;5032891;28;20228;-86
2024/01/05 12:42:21;;;;;;;3.40;3.00;;;;;;;;;;5033733;28;20342;-86
2024/01/05 12:44:49;;;;;;;3.50;2.70;;;;;;;;;;5039571;28;20634;-86
2024/01/05 12:47:28;;;;;;;6.80;2.63;;;;;;;;;;5033140;28;20297;-86
2024/01/05 12:49:58;;;;;;;3.73;3.17;;;;;;;;;;5031921;28;20239;-89
2024/01/05 12:52:36;;;;;;;3.37;2.43;;;;;;;;;;5039001;28;20284;-87
2024/01/05 12:55:04;;;;;;;2.37;2.27;;;;;;;;;;5033758;28;20298;-86
2024/01/05 12:57:33;;;;;;;3.07;2.50;;;;;;;;;;5031273;28;20230;-85
2024/01/05 13:00:03;;;;;;;8.17;2.50;;;;;;;;;;5031029;28;20227;-85
2024/01/05 13:02:31;;;;;;;2.40;2.20;;;;;;;;;;5032891;28;20232;-86
2024/01/05 13:04:59;;;;;;;3.53;2.67;;;;;;;;;;5032666;28;20713;-86
2024/01/05 13:07:26;;;;;;;4.03;1.97;;;;;;;;;;5017389;28;20239;-86
2024/01/05 13:09:54;;;;;;;10.50;2.53;;;;;;;;;;5012103;28;20282;-87
2024/01/05 13:12:36;;;;;;;8.67;2.10;;;;;;;;;;5012922;28;20697;-87
2024/01/05 13:15:09;;;;;;;9.33;2.40;;;;;;;;;;5016124;28;20255;-86
2024/01/05 13:17:41;;;;;;;3.00;1.90;;;;;;;;;;5038698;28;20232;-86
2024/01/05 13:20:17;;;;;;;1.77;1.60;;;;;;;;;;5040195;28;20406;-86
2024/01/05 13:22:52;;;;;;;7.30;1.90;;;;;;;;;;5040363;28;20220;-87
2024/01/05 13:25:34;;;;;;;5.43;2.77;;;;;;;;;;5034301;28;20382;-87
2024/01/05 13:28:08;;;;;;;2.13;2.03;;;;;;;;;;5021444;28;20236;-87
2024/01/05 13:30:43;;;;;;;2.00;1.90;;;;;;;;;;5030189;28;20697;-86
2024/01/05 13:33:12;;;;;;;2.93;2.37;;;;;;;;;;5032713;28;20227;-87
2024/01/05 13:35:40;;;;;;;4.63;2.47;;;;;;;;;;5031567;28;20369;-87
2024/01/05 13:38:14;;;;;;;5.53;1.80;;;;;;;;;;5031076;28;20316;-86
2024/01/05 13:40:46;;;;;;;4.70;2.40;;;;;;;;;;5030901;28;20218;-88
2024/01/05 13:43:19;;;;;;;4.07;1.83;;;;;;;;;;5014018;28;20219;-87
2024/01/05 13:45:54;;;;;;;3.63;1.90;;;;;;;;;;5032464;28;20283;-86
2024/01/05 13:48:27;;;;;;;12.83;1.93;;;;;;;;;;5032460;28;20251;-86
2024/01/05 13:50:58;;;;;;;1.90;1.80;;;;;;;;;;5032025;28;20317;-87
2024/01/05 13:53:36;;;;;;;6.27;1.80;;;;;;;;;;5032596;28;20655;-87
2024/01/05 13:56:08;;;;;;;1.70;1.60;;;;;;;;;;5032761;28;20611;-86
2024/01/05 13:58:44;;;;;;;3.03;1.83;;;;;;;;;;5032091;28;20224;-87
2024/01/05 14:01:20;;;;;;;2.67;1.30;;;;;;;;;;5035757;28;20283;-86
2024/01/05 14:04:11;;;;;;;2.00;1.90;;;;;;;;;;5038781;28;20223;-88
2024/01/05 14:06:41;;;;;;;4.90;1.53;;;;;;;;;;5022957;28;20242;-88
2024/01/05 14:09:10;;;;;;;3.83;1.87;;;;;;;;;;5033098;28;20414;-86
2024/01/05 14:11:39;;;;;;;4.30;1.90;;;;;;;;;;5032642;28;20240;-86
2024/01/05 14:14:11;;;;;;;7.87;1.63;;;;;;;;;;5037412;28;20265;-86
2024/01/05 14:16:45;;;;;;;2.20;2.00;;;;;;;;;;5033597;28;20235;-87
2024/01/05 14:19:16;;;;;;;3.17;2.87;;;;;;;;;;5033865;28;20230;-87
2024/01/05 14:21:47;;;;;;;4.77;2.60;;;;;;;;;;5033908;28;20324;-86
2024/01/05 14:24:17;;;;;;;3.40;2.60;;;;;;;;;;5041700;28;20237;-86
2024/01/05 14:29:41;;;;;;;3.03;2.63;;;;;;;;;;5040415;28;20217;-87
2024/01/05 14:32:16;;;;;;;3.90;2.20;;;;;;;;;;5041424;28;20224;-86
2024/01/05 14:34:56;;;;;;;;;;;;;;;;;;;;;
2024/01/05 14:37:27;;;;;;;6.13;3.30;;;;;;;;;;5042898;28;20239;-86
2024/01/05 14:42:41;;;;;;;12.73;5.00;;;;;;;;;;5039368;28;20243;-87
2024/01/05 14:45:09;;;;;;;7.20;3.37;;;;;;;;;;5043008;28;20219;-85
2024/01/05 14:47:40;;;;;;;8.13;3.33;;;;;;;;;;5040114;28;20241;-86
2024/01/05 14:50:17;;;;;;;16.87;6.40;;;;;;;;;;5045213;28;20304;-86
2024/01/05 14:52:44;;;;;;;15.47;6.07;;;;;;;;;;5046712;28;20257;-86
2024/01/05 14:55:17;;;;;;;19.27;4.30;;;;;;;;;;5044946;28;20254;-87
2024/01/05 14:57:51;;;;;;;8.60;2.90;;;;;;;;;;5041579;28;20230;-85
2024/01/05 15:00:20;;;;;;;3.37;3.07;;;;;;;;;;5043661;28;20289;-86
2024/01/05 15:02:52;;;;;;;7.20;3.97;;;;;;;;;;5042999;28;20370;-85
2024/01/05 15:05:25;;;;;;;2.20;1.90;;;;;;;;;;5044717;28;20763;-86
2024/01/05 15:10:39;;;;;;;3.07;1.97;;;;;;;;;;5043440;28;20228;-85
2024/01/05 15:13:10;;;;;;;6.40;3.03;;;;;;;;;;5042700;28;20232;-88
2024/01/05 15:16:04;;;;;;;7.83;3.23;;;;;;;;;;5046034;28;20227;-85
2024/01/05 15:18:45;;;;;;;9.33;6.03;;;;;;;;;;4963978;28;20619;-85
2024/01/05 15:21:25;;;;;;;12.80;6.70;;;;;;;;;;5041609;28;20225;-87
2024/01/05 15:24:09;;;;;;;5.93;3.60;;;;;;;;;;5039164;28;20223;-87